< < Back
Terminal Aerodrome Forecast


Current Version              Previous Versions:   1  2  3  4  5  6  7  8  9  

Terminal Aerodrome Forecast

156
FTUS42 KTAE 201700
TAFABY
TAF
KABY 201720Z 2018/2118 28007KT P6SM FEW030
     FM210200 31004KT P6SM SKC=

Latest METAR

710
SAUS70 KWBC 211400 RRL
MTRABY
METAR KABY 211353Z 00000KT 10SM CLR 29/22 A3016 RMK AO2 SLP210
T02940222


USA.gov is the U.S. government's official web portal to all federal, state and local government web resources and services.